Time;durP1;ratioP1;P1;durP2;ratioP2;P2;SDS_P1;SDS_P2;PMS_P1;PMS_P2;Temp;Humidity;BMP_temperature;BMP_pressure;BME280_temperature;BME280_humidity;BME280_pressure;Samples;Min_cycle;Max_cycle;Signal;HPM_P1;HPM_P2
2023/06/26 00:02:11;;;;;;;3.30;2.33;;;;;;;26.96;33.66;96409.97;5034756;28;20036;-27
2023/06/26 00:04:37;;;;;;;3.92;2.53;;;;;;;27.02;33.61;96401.53;5035082;28;20069;-26
2023/06/26 00:07:04;;;;;;;3.60;2.15;;;;;;;27.03;33.14;96397.47;5034930;28;20059;-27
2023/06/26 00:09:29;;;;;;;3.35;2.22;;;;;;;27.09;33.56;96384.16;5035073;28;20040;-27
2023/06/26 00:11:55;;;;;;;2.75;1.98;;;;;;;26.88;33.42;96386.84;5034819;28;20017;-27
2023/06/26 00:14:20;;;;;;;3.75;2.30;;;;;;;26.78;34.14;96383.75;5034595;28;20360;-26
2023/06/26 00:16:46;;;;;;;3.00;2.30;;;;;;;26.84;33.72;96378.81;5034976;28;20025;-26
2023/06/26 00:19:12;;;;;;;6.20;2.40;;;;;;;26.97;33.61;96380.13;5034773;28;20021;-28
2023/06/26 00:21:46;;;;;;;3.58;2.45;;;;;;;26.80;33.83;96378.41;5034913;28;20116;-26
2023/06/26 00:24:12;;;;;;;2.58;2.38;;;;;;;26.90;33.48;96372.41;5033726;28;20027;-27
2023/06/26 00:26:38;;;;;;;3.53;2.33;;;;;;;26.96;34.02;96371.00;5034642;28;20025;-27
2023/06/26 00:29:03;;;;;;;2.90;2.45;;;;;;;26.82;33.75;96364.72;5034874;28;20528;-26
2023/06/26 00:31:28;;;;;;;4.60;2.35;;;;;;;26.89;33.56;96365.34;5041107;28;20136;-27
2023/06/26 00:33:54;;;;;;;5.22;2.30;;;;;;;26.78;34.13;96367.06;5034559;28;20471;-26
2023/06/26 00:36:19;;;;;;;2.67;2.28;;;;;;;26.70;34.03;96365.47;5041206;28;20056;-27
2023/06/26 00:38:45;;;;;;;3.72;2.63;;;;;;;26.92;34.63;96353.13;5033816;28;20021;-29
2023/06/26 00:41:12;;;;;;;3.72;2.83;;;;;;;26.82;34.77;96348.03;5033732;28;20053;-26
2023/06/26 00:43:38;;;;;;;3.50;2.35;;;;;;;26.76;34.71;96358.50;5034553;28;20018;-27
2023/06/26 00:46:05;;;;;;;2.75;2.17;;;;;;;26.76;35.17;96358.50;5034302;28;20017;-27
2023/06/26 00:48:30;;;;;;;4.20;2.55;;;;;;;26.77;34.50;96359.25;5033994;28;20029;-28
2023/06/26 00:50:56;;;;;;;3.20;2.90;;;;;;;26.92;34.68;96365.03;5033971;28;20032;-27
2023/06/26 00:53:22;;;;;;;3.25;2.60;;;;;;;26.92;34.87;96361.50;5034081;28;20056;-26
2023/06/26 00:55:47;;;;;;;2.83;2.30;;;;;;;26.88;34.83;96364.59;5034302;28;20359;-26
2023/06/26 00:58:13;;;;;;;2.95;2.58;;;;;;;26.79;35.52;96354.66;5033128;28;20013;-27
2023/06/26 01:00:39;;;;;;;3.42;2.60;;;;;;;26.89;35.24;96365.34;5041156;28;20467;-27
2023/06/26 01:03:04;;;;;;;2.60;2.30;;;;;;;27.02;35.35;96362.56;5033935;28;20451;-27
2023/06/26 01:05:30;;;;;;;3.17;2.85;;;;;;;26.65;36.24;96358.72;5033894;28;20031;-28
2023/06/26 01:07:57;;;;;;;4.68;2.97;;;;;;;26.83;35.36;96362.66;5034189;28;20104;-29
2023/06/26 01:10:24;;;;;;;3.90;2.58;;;;;;;26.84;35.82;96353.03;5040816;28;20021;-27
2023/06/26 01:12:49;;;;;;;2.90;2.63;;;;;;;26.78;35.82;96358.72;5033953;28;20101;-27
2023/06/26 01:15:15;;;;;;;3.65;2.60;;;;;;;26.88;35.25;96355.50;5033379;28;20018;-26
2023/06/26 01:17:44;;;;;;;3.70;2.60;;;;;;;26.82;35.46;96355.63;5043240;28;20463;-27
2023/06/26 01:20:11;;;;;;;2.90;2.55;;;;;;;26.75;35.33;96362.56;5048540;28;20030;-27
2023/06/26 01:22:52;;;;;;;3.67;2.80;;;;;;;26.94;35.39;96359.69;5039437;28;20492;-29
2023/06/26 01:25:30;;;;;;;3.05;2.75;;;;;;;26.74;35.87;96352.72;5033474;28;20018;-28
2023/06/26 01:27:56;;;;;;;5.32;2.40;;;;;;;26.60;35.84;96350.47;5033325;28;20030;-27
2023/06/26 01:30:22;;;;;;;3.45;2.50;;;;;;;26.87;35.25;96357.53;5033405;28;20026;-26
2023/06/26 01:32:48;;;;;;;3.40;2.67;;;;;;;26.74;35.45;96355.50;5033717;28;20624;-28
2023/06/26 01:35:15;;;;;;;4.25;2.72;;;;;;;26.78;35.33;96361.50;5033561;28;20055;-26
2023/06/26 01:37:41;;;;;;;3.45;2.80;;;;;;;26.68;35.68;96356.91;5033395;28;20048;-27
2023/06/26 01:40:07;;;;;;;3.83;2.75;;;;;;;26.87;35.61;96362.34;5033118;28;20038;-27
2023/06/26 01:42:33;;;;;;;5.22;2.58;;;;;;;26.80;34.99;96356.16;5033715;28;20474;-26
2023/06/26 01:45:34;;;;;;;5.40;2.90;;;;;;;26.66;35.53;96353.91;5033140;28;20090;-26
2023/06/26 01:48:01;;;;;;;4.50;3.00;;;;;;;26.63;35.56;96358.50;5018631;28;20033;-27
2023/06/26 01:50:31;;;;;;;3.78;2.83;;;;;;;26.52;35.54;96361.50;5033375;28;20413;-26
2023/06/26 01:52:57;;;;;;;6.32;3.05;;;;;;;26.80;35.10;96358.94;5033592;28;20470;-26
2023/06/26 01:55:44;;;;;;;4.45;2.92;;;;;;;26.78;35.56;96353.16;5033073;28;20056;-26
2023/06/26 01:58:10;;;;;;;4.38;2.70;;;;;;;26.73;35.17;96342.13;5033067;28;20475;-26
2023/06/26 02:00:37;;;;;;;4.45;2.80;;;;;;;26.81;35.20;96352.09;5033101;28;20021;-27
2023/06/26 02:03:04;;;;;;;3.40;2.75;;;;;;;26.76;35.12;96350.16;5040382;28;20032;-27
2023/06/26 02:05:30;;;;;;;5.57;3.28;;;;;;;26.68;35.54;96343.00;5033306;28;20022;-26
2023/06/26 02:07:56;;;;;;;4.68;2.85;;;;;;;26.71;35.32;96348.22;5032866;28;20014;-26
2023/06/26 02:10:21;;;;;;;3.40;2.67;;;;;;;26.73;35.36;96356.03;5035247;28;20025;-27
2023/06/26 02:12:47;;;;;;;3.13;2.80;;;;;;;26.55;35.99;96354.88;5036449;28;20025;-27
2023/06/26 02:15:12;;;;;;;3.70;2.80;;;;;;;26.69;35.83;96353.59;5040912;28;20021;-27
2023/06/26 02:17:38;;;;;;;4.28;2.92;;;;;;;26.50;36.05;96360.53;5040365;28;20056;-27
2023/06/26 02:20:04;;;;;;;3.45;2.50;;;;;;;26.72;35.20;96358.06;5037492;28;20037;-27
2023/06/26 02:22:29;;;;;;;4.28;2.88;;;;;;;26.80;35.28;96350.59;5036843;28;20056;-26
2023/06/26 02:24:55;;;;;;;3.90;2.90;;;;;;;26.63;35.92;96352.19;5036723;28;20451;-27
2023/06/26 02:27:20;;;;;;;4.18;2.83;;;;;;;26.46;35.92;96346.94;5036638;28;20022;-27
2023/06/26 02:29:45;;;;;;;4.22;3.10;;;;;;;26.65;36.06;96352.41;5036675;28;20112;-27
2023/06/26 02:32:11;;;;;;;3.45;2.90;;;;;;;26.63;35.96;96358.50;5037071;28;20021;-27
2023/06/26 02:34:36;;;;;;;3.22;2.47;;;;;;;26.47;36.09;96354.00;5036635;28;20108;-26
2023/06/26 02:37:02;;;;;;;3.10;2.55;;;;;;;26.59;36.27;96355.28;5040197;28;20032;-27
2023/06/26 02:39:28;;;;;;;3.40;2.70;;;;;;;26.64;35.70;96351.66;5037015;28;20119;-26
2023/06/26 02:41:53;;;;;;;3.65;3.03;;;;;;;26.61;36.00;96349.94;5036575;28;20038;-26
2023/06/26 02:44:19;;;;;;;4.43;2.72;;;;;;;26.57;36.20;96352.31;5036811;28;20017;-27
2023/06/26 02:46:45;;;;;;;3.47;2.80;;;;;;;26.51;35.62;96354.44;5036313;28;20014;-27
2023/06/26 02:49:10;;;;;;;3.50;2.70;;;;;;;26.51;36.04;96343.31;5036133;28;20112;-26
2023/06/26 02:51:36;;;;;;;4.20;2.85;;;;;;;26.53;36.20;96343.53;5036149;28;20503;-27
2023/06/26 02:54:01;;;;;;;4.13;3.03;;;;;;;26.46;36.19;96349.72;5036190;28;20104;-27
2023/06/26 02:56:28;;;;;;;4.47;3.17;;;;;;;26.55;35.66;96352.09;5036235;28;20475;-27
2023/06/26 02:58:55;;;;;;;3.85;3.40;;;;;;;26.58;35.90;96348.22;5036505;28;20560;-26
2023/06/26 03:01:21;;;;;;;4.95;3.42;;;;;;;26.58;36.18;96350.28;5035926;28;20021;-27
2023/06/26 03:03:46;;;;;;;4.20;3.10;;;;;;;26.59;35.75;96352.50;5036397;28;20033;-27
2023/06/26 03:06:12;;;;;;;5.95;3.40;;;;;;;26.59;36.20;96351.75;5035755;28;20583;-27
2023/06/26 03:08:41;;;;;;;4.93;3.17;;;;;;;26.45;36.31;96356.59;5035738;28;20033;-26
2023/06/26 03:11:07;;;;;;;4.53;3.22;;;;;;;26.61;36.27;96354.75;5036407;28;20029;-28
2023/06/26 03:13:36;;;;;;;4.07;3.17;;;;;;;26.60;36.19;96362.34;5045523;28;20017;-26
2023/06/26 03:16:02;;;;;;;5.47;3.10;;;;;;;26.47;36.36;96354.75;5042673;28;20125;-27
2023/06/26 03:18:28;;;;;;;4.90;3.10;;;;;;;26.38;36.46;96348.88;5035909;28;20029;-27
2023/06/26 03:20:55;;;;;;;4.07;3.05;;;;;;;26.23;37.14;96356.97;5035590;28;20076;-26
2023/06/26 03:23:21;;;;;;;4.18;3.10;;;;;;;26.33;37.07;96355.31;5035537;28;20021;-26
2023/06/26 03:25:48;;;;;;;6.32;3.05;;;;;;;26.42;36.61;96357.66;5042730;28;20371;-26
2023/06/26 03:28:13;;;;;;;4.38;3.50;;;;;;;26.60;36.37;96356.78;5035540;28;20546;-28
2023/06/26 03:30:39;;;;;;;5.18;2.88;;;;;;;26.42;36.25;96360.44;5040118;28;20036;-27
2023/06/26 03:33:04;;;;;;;4.18;3.28;;;;;;;26.46;36.43;96346.94;5035416;28;20450;-27
2023/06/26 03:35:30;;;;;;;5.40;3.38;;;;;;;26.43;36.23;96350.81;5035478;28;20025;-26
2023/06/26 03:37:57;;;;;;;5.20;3.53;;;;;;;26.50;36.18;96343.84;5036019;28;20466;-27
2023/06/26 03:40:23;;;;;;;4.20;3.30;;;;;;;26.42;36.30;96346.53;5035526;28;20056;-28
2023/06/26 03:42:48;;;;;;;6.95;3.35;;;;;;;26.36;36.13;96348.66;5035434;28;20019;-27
2023/06/26 03:45:14;;;;;;;5.47;3.30;;;;;;;26.49;36.17;96345.88;5035421;28;20479;-27
2023/06/26 03:47:39;;;;;;;3.83;3.20;;;;;;;26.47;36.22;96345.66;5034939;28;20026;-27
2023/06/26 03:50:05;;;;;;;4.45;3.67;;;;;;;26.34;36.34;96351.22;5035168;28;20025;-26
2023/06/26 03:52:30;;;;;;;4.28;3.53;;;;;;;26.34;36.29;96349.19;5035823;28;20025;-26
2023/06/26 03:54:57;;;;;;;4.68;3.10;;;;;;;26.42;36.56;96352.09;5042039;28;20486;-27
2023/06/26 03:57:22;;;;;;;3.35;2.85;;;;;;;26.48;36.43;96350.69;5035024;28;20029;-26
2023/06/26 03:59:48;;;;;;;3.80;3.40;;;;;;;26.26;36.79;96355.91;5042185;28;20032;-28
2023/06/26 04:02:13;;;;;;;5.30;3.65;;;;;;;26.38;36.95;96354.44;5034792;28;20029;-26
2023/06/26 04:04:39;;;;;;;6.68;3.83;;;;;;;26.35;37.07;96349.94;5034398;28;20059;-27
2023/06/26 04:07:05;;;;;;;3.83;3.40;;;;;;;26.53;36.69;96357.44;5038192;28;20114;-27
2023/06/26 04:09:30;;;;;;;3.88;3.20;;;;;;;26.29;37.42;96355.63;5038646;28;20099;-27
2023/06/26 04:11:56;;;;;;;5.53;2.88;;;;;;;26.33;37.05;96361.63;5035023;28;20013;-27
2023/06/26 04:14:21;;;;;;;5.95;3.38;;;;;;;26.35;37.25;96363.84;5034907;28;20029;-29
2023/06/26 04:16:47;;;;;;;6.28;3.40;;;;;;;26.36;36.84;96365.34;5034798;28;20546;-26
2023/06/26 04:19:13;;;;;;;5.53;3.58;;;;;;;26.45;37.16;96362.16;5034427;28;20471;-26
2023/06/26 04:21:38;;;;;;;4.20;3.58;;;;;;;26.36;37.32;96360.53;5041394;28;20036;-27
2023/06/26 04:24:04;;;;;;;3.58;3.28;;;;;;;26.28;37.65;96364.50;5041461;28;20398;-27
2023/06/26 04:26:30;;;;;;;3.80;3.40;;;;;;;26.45;36.96;96365.69;5034317;28;20032;-26
2023/06/26 04:28:55;;;;;;;3.45;3.10;;;;;;;26.35;36.95;96372.19;5034645;28;20029;-27
2023/06/26 04:31:21;;;;;;;4.35;3.40;;;;;;;26.25;37.47;96359.97;5034496;28;20499;-27
2023/06/26 04:33:50;;;;;;;5.28;3.53;;;;;;;26.34;37.24;96367.91;5033774;28;20022;-27
2023/06/26 04:36:17;;;;;;;3.75;3.17;;;;;;;26.56;36.92;96373.06;5039807;28;20100;-28
2023/06/26 04:38:42;;;;;;;4.53;3.70;;;;;;;26.25;37.78;96377.38;5034489;28;20087;-28
2023/06/26 04:41:08;;;;;;;4.05;3.40;;;;;;;26.26;37.48;96372.56;5033802;28;20033;-26
2023/06/26 04:43:33;;;;;;;3.95;3.50;;;;;;;26.18;37.54;96371.72;5034065;28;20025;-28
2023/06/26 04:45:58;;;;;;;4.57;3.20;;;;;;;26.28;37.73;96375.59;5034151;28;20036;-26
2023/06/26 04:48:24;;;;;;;4.13;3.35;;;;;;;26.32;37.80;96376.81;5034370;28;20060;-26
2023/06/26 04:50:53;;;;;;;5.15;3.55;;;;;;;26.47;37.07;96376.25;5040145;28;20037;-27
2023/06/26 04:53:20;;;;;;;6.93;3.70;;;;;;;26.37;37.50;96373.16;5033934;28;20053;-27
2023/06/26 04:55:46;;;;;;;4.82;3.42;;;;;;;26.57;37.67;96368.25;5034122;28;20028;-27
2023/06/26 04:58:11;;;;;;;5.95;3.95;;;;;;;26.25;38.03;96362.75;5033382;28;20017;-27
2023/06/26 05:00:37;;;;;;;6.25;3.60;;;;;;;26.41;37.63;96361.72;5032449;28;20021;-26
2023/06/26 05:03:02;;;;;;;4.57;3.55;;;;;;;26.42;37.70;96366.75;5034744;28;20075;-27
2023/06/26 05:05:28;;;;;;;4.53;3.80;;;;;;;26.31;38.04;96363.44;5033642;28;20079;-26
2023/06/26 05:07:55;;;;;;;3.80;3.13;;;;;;;26.28;38.15;96370.06;5041823;28;20036;-27
2023/06/26 05:10:20;;;;;;;6.20;3.75;;;;;;;26.43;37.51;96356.38;5033730;28;20045;-26
2023/06/26 05:12:46;;;;;;;5.93;3.70;;;;;;;26.50;37.95;96369.63;5041758;28;20048;-26
2023/06/26 05:15:11;;;;;;;4.43;3.50;;;;;;;26.34;38.13;96362.34;5033711;28;20021;-27
2023/06/26 05:17:37;;;;;;;4.05;3.35;;;;;;;26.30;38.41;96361.94;5033809;28;20025;-26
2023/06/26 05:20:03;;;;;;;5.07;3.38;;;;;;;26.64;37.62;96367.59;5036493;28;20376;-27
2023/06/26 05:22:29;;;;;;;5.75;3.88;;;;;;;26.29;38.21;96377.09;5033575;28;20099;-26
2023/06/26 05:24:58;;;;;;;3.97;3.38;;;;;;;26.42;38.34;96368.78;5033769;28;20029;-26
2023/06/26 05:27:25;;;;;;;5.35;4.03;;;;;;;26.47;38.21;96365.13;5032408;28;20390;-27
2023/06/26 05:29:50;;;;;;;4.72;3.80;;;;;;;26.46;37.93;96369.19;5040265;28;20048;-27
2023/06/26 05:32:19;;;;;;;3.75;3.40;;;;;;;26.57;37.56;96374.56;5034021;28;20021;-27
2023/06/26 05:34:51;;;;;;;4.22;3.42;;;;;;;26.44;37.95;96377.34;5033368;28;20033;-26
2023/06/26 05:37:21;;;;;;;4.63;3.70;;;;;;;26.48;38.40;96374.97;5033345;28;20029;-27
2023/06/26 05:39:47;;;;;;;4.90;3.97;;;;;;;26.45;38.29;96373.28;5032925;28;20028;-27
2023/06/26 05:42:13;;;;;;;4.93;4.00;;;;;;;26.47;38.12;96382.56;5033497;28;20029;-26
2023/06/26 05:44:38;;;;;;;3.97;3.58;;;;;;;26.58;38.54;96383.66;5035565;28;20029;-26
2023/06/26 05:47:04;;;;;;;5.32;3.90;;;;;;;26.49;38.66;96384.81;5040263;28;20032;-26
2023/06/26 05:49:30;;;;;;;6.15;4.03;;;;;;;26.46;38.73;96391.44;5039678;28;20494;-27
2023/06/26 05:51:56;;;;;;;4.20;3.40;;;;;;;26.59;38.65;96391.44;5039807;28;20024;-28
2023/06/26 05:54:22;;;;;;;4.38;3.70;;;;;;;26.62;38.85;96397.97;5040059;28;20159;-26
2023/06/26 05:56:48;;;;;;;5.03;3.78;;;;;;;26.64;38.73;96396.16;5039871;28;20100;-27
2023/06/26 05:59:16;;;;;;;4.97;3.78;;;;;;;26.49;39.23;96390.38;5039850;28;20017;-27
2023/06/26 06:01:41;;;;;;;4.07;3.65;;;;;;;26.69;38.66;96391.78;5053025;28;20128;-27
2023/06/26 06:04:07;;;;;;;4.40;3.75;;;;;;;26.57;39.15;96391.25;5039597;28;20101;-27
2023/06/26 06:06:32;;;;;;;4.03;3.63;;;;;;;26.51;38.93;96393.38;5040015;28;20044;-26
2023/06/26 06:08:58;;;;;;;6.80;3.53;;;;;;;26.69;38.82;96389.00;5042128;28;20554;-26
2023/06/26 06:11:23;;;;;;;3.90;3.42;;;;;;;26.51;38.96;96398.94;5044218;28;20348;-28
2023/06/26 06:13:49;;;;;;;5.70;3.75;;;;;;;26.42;39.10;96394.56;5047161;28;20021;-26
2023/06/26 06:16:14;;;;;;;4.63;3.72;;;;;;;26.74;38.56;96400.00;5039481;28;20044;-26
2023/06/26 06:18:40;;;;;;;5.43;3.90;;;;;;;26.68;38.93;96406.97;5039664;28;20021;-26
2023/06/26 06:21:05;;;;;;;3.97;3.45;;;;;;;26.73;38.52;96406.13;5039734;28;20104;-27
2023/06/26 06:23:31;;;;;;;4.55;3.28;;;;;;;26.70;38.67;96404.44;5039857;28;20017;-27
2023/06/26 06:25:56;;;;;;;7.43;3.70;;;;;;;26.81;38.86;96409.78;5047033;28;20028;-26
2023/06/26 06:28:21;;;;;;;4.15;3.75;;;;;;;26.73;38.54;96401.31;5039386;28;20519;-28
2023/06/26 06:30:47;;;;;;;5.32;3.88;;;;;;;26.91;39.03;96398.94;5039647;28;20021;-26
2023/06/26 06:33:14;;;;;;;4.15;3.60;;;;;;;26.87;38.76;96413.19;5039558;28;20030;-26
2023/06/26 06:35:39;;;;;;;5.72;4.00;;;;;;;26.72;39.20;96410.94;5044519;28;20037;-26
2023/06/26 06:38:05;;;;;;;4.07;3.40;;;;;;;26.65;39.07;96406.00;5039436;28;20372;-26
2023/06/26 06:40:30;;;;;;;4.53;3.53;;;;;;;26.92;39.10;96411.56;5046935;28;20103;-26
2023/06/26 06:42:56;;;;;;;5.63;4.07;;;;;;;26.78;39.09;96408.06;5039382;28;20464;-26
2023/06/26 06:45:21;;;;;;;4.88;3.42;;;;;;;26.77;39.10;96404.50;5039635;28;20053;-26
2023/06/26 06:47:47;;;;;;;4.40;4.00;;;;;;;26.84;38.90;96403.09;5039527;28;20466;-26
2023/06/26 06:50:13;;;;;;;4.45;3.70;;;;;;;26.94;38.03;96409.03;5039414;28;20025;-26
2023/06/26 06:52:40;;;;;;;9.48;3.67;;;;;;;26.77;38.62;96398.94;5039649;28;20022;-26
2023/06/26 06:55:08;;;;;;;4.10;3.63;;;;;;;26.70;39.05;96401.63;5039622;28;20029;-26
2023/06/26 06:57:37;;;;;;;4.75;3.60;;;;;;;27.02;38.18;96409.88;5035184;28;20391;-26
2023/06/26 07:00:11;;;;;;;4.57;3.70;;;;;;;26.99;38.68;96408.16;5036051;28;20048;-26
2023/06/26 07:02:40;;;;;;;4.10;3.70;;;;;;;26.94;38.76;96411.81;5036759;28;20031;-26
2023/06/26 07:05:05;;;;;;;5.22;4.25;;;;;;;26.92;38.36;96417.16;5036163;28;20528;-26
2023/06/26 07:07:33;;;;;;;5.68;3.90;;;;;;;27.02;38.50;96407.09;5043692;28;20120;-26
2023/06/26 07:10:07;;;;;;;4.75;3.88;;;;;;;26.89;38.43;96413.41;5036319;28;20112;-26
2023/06/26 07:12:33;;;;;;;5.28;3.83;;;;;;;26.98;37.95;96415.00;5036029;28;20108;-26
2023/06/26 07:15:00;;;;;;;5.72;4.18;;;;;;;26.78;38.41;96408.81;5035514;28;20104;-26
2023/06/26 07:17:26;;;;;;;4.13;3.53;;;;;;;26.88;38.44;96420.25;5035832;28;20092;-26
2023/06/26 07:19:52;;;;;;;5.15;3.88;;;;;;;26.96;38.26;96425.94;5036193;28;20033;-26
2023/06/26 07:22:20;;;;;;;4.15;3.47;;;;;;;27.22;37.78;96420.34;5035972;28;20037;-26
2023/06/26 07:24:45;;;;;;;6.40;3.80;;;;;;;27.08;38.35;96424.41;5035766;28;20028;-26
2023/06/26 07:27:11;;;;;;;4.85;3.70;;;;;;;27.07;38.08;96414.59;5035560;28;20017;-26
2023/06/26 07:29:36;;;;;;;4.15;3.70;;;;;;;27.08;38.45;96410.50;5038586;28;20021;-26
2023/06/26 07:32:02;;;;;;;4.53;3.90;;;;;;;27.02;38.54;96418.97;5035723;28;20482;-26
2023/06/26 07:34:27;;;;;;;4.07;3.55;;;;;;;27.14;38.39;96414.69;5038423;28;20385;-26
2023/06/26 07:36:53;;;;;;;4.82;3.75;;;;;;;27.11;38.40;96426.13;5039046;28;20033;-26
2023/06/26 07:39:19;;;;;;;6.22;3.72;;;;;;;27.08;38.45;96410.50;5035306;28;20032;-26
2023/06/26 07:41:44;;;;;;;4.57;3.90;;;;;;;27.21;38.20;96421.63;5035114;28;20053;-26
2023/06/26 07:44:10;;;;;;;4.45;3.63;;;;;;;27.22;38.57;96414.75;5034937;28;20029;-26
2023/06/26 07:46:35;;;;;;;5.82;3.75;;;;;;;27.27;38.44;96425.06;5035663;28;20035;-26
2023/06/26 07:49:01;;;;;;;4.55;3.95;;;;;;;27.22;39.12;96425.16;5035478;28;20022;-26
2023/06/26 07:51:26;;;;;;;5.53;3.70;;;;;;;27.42;38.15;96428.03;5035120;28;20021;-26
2023/06/26 07:53:51;;;;;;;5.60;3.88;;;;;;;27.26;38.83;96429.13;5035217;28;20017;-26
2023/06/26 07:56:17;;;;;;;5.15;3.78;;;;;;;27.30;38.89;96429.56;5035023;28;20490;-26
2023/06/26 07:58:42;;;;;;;4.82;3.83;;;;;;;27.33;38.90;96428.44;5035139;28;20497;-26
2023/06/26 08:01:08;;;;;;;5.35;3.60;;;;;;;27.31;38.58;96438.66;5035519;28;20455;-26
2023/06/26 08:03:34;;;;;;;5.70;3.85;;;;;;;27.33;38.40;96442.38;5035513;28;20029;-26
2023/06/26 08:05:59;;;;;;;6.65;3.90;;;;;;;27.42;38.05;96436.38;5034806;28;20485;-26
2023/06/26 08:08:25;;;;;;;4.90;3.72;;;;;;;27.44;38.11;96435.84;5034471;28;20498;-26
2023/06/26 08:10:50;;;;;;;4.75;4.22;;;;;;;27.40;39.08;96433.38;5034842;28;20014;-26
2023/06/26 08:13:16;;;;;;;4.88;3.85;;;;;;;27.36;39.01;96430.16;5034733;28;20024;-26
2023/06/26 08:15:41;;;;;;;4.50;3.75;;;;;;;27.46;38.44;96433.25;5042022;28;20063;-26
2023/06/26 08:18:07;;;;;;;5.53;4.05;;;;;;;27.40;38.92;96440.97;5034973;28;20032;-26
2023/06/26 08:20:32;;;;;;;4.60;3.75;;;;;;;27.44;38.84;96431.03;5034600;28;20441;-26
2023/06/26 08:22:58;;;;;;;6.13;4.32;;;;;;;27.59;38.55;96430.44;5034382;28;20025;-26
2023/06/26 08:25:23;;;;;;;4.45;3.97;;;;;;;27.45;38.77;96432.50;5034499;28;20048;-26
2023/06/26 08:27:48;;;;;;;5.45;4.28;;;;;;;27.53;38.60;96433.34;5034940;28;20033;-26
2023/06/26 08:30:14;;;;;;;5.35;4.10;;;;;;;27.48;38.69;96437.00;5042931;28;20104;-26
2023/06/26 08:32:40;;;;;;;5.82;4.10;;;;;;;27.51;38.73;96430.34;5047797;28;20029;-28
2023/06/26 08:35:06;;;;;;;5.15;4.20;;;;;;;27.56;38.97;96434.34;5034353;28;20135;-26
2023/06/26 08:37:32;;;;;;;6.18;4.05;;;;;;;27.49;38.66;96443.31;5034233;28;20021;-26
2023/06/26 08:39:59;;;;;;;5.35;4.05;;;;;;;27.56;39.10;96442.69;5033897;28;20044;-26
2023/06/26 08:42:25;;;;;;;5.68;4.05;;;;;;;27.58;38.94;96437.31;5040798;28;20397;-26
2023/06/26 08:44:50;;;;;;;4.95;3.95;;;;;;;27.52;39.24;96434.63;5041373;28;20033;-26
2023/06/26 08:47:16;;;;;;;5.18;4.03;;;;;;;27.50;39.00;96439.25;5034567;28;20013;-27
2023/06/26 08:49:53;;;;;;;6.57;4.38;;;;;;;27.65;39.12;96435.91;5034288;28;20013;-26
2023/06/26 08:52:30;;;;;;;8.55;4.03;;;;;;;27.62;39.18;96434.19;5034196;28;20025;-26
2023/06/26 08:54:58;;;;;;;4.88;4.03;;;;;;;27.61;39.33;96432.69;5041227;28;20024;-26
2023/06/26 08:57:26;;;;;;;4.82;3.90;;;;;;;27.76;39.25;96428.03;5034383;28;20017;-26
2023/06/26 08:59:52;;;;;;;4.95;4.15;;;;;;;27.61;39.42;96438.28;5033548;28;20018;-26
2023/06/26 09:02:20;;;;;;;5.45;4.25;;;;;;;27.64;39.26;96431.63;5034131;28;20014;-26
2023/06/26 09:04:47;;;;;;;6.07;4.30;;;;;;;27.66;39.75;96440.94;5033731;28;20065;-26
2023/06/26 09:07:13;;;;;;;5.38;4.18;;;;;;;27.55;40.23;96435.59;5033525;28;20025;-26
2023/06/26 09:09:38;;;;;;;5.72;4.38;;;;;;;27.69;39.87;96433.53;5034022;28;20100;-26
2023/06/26 09:12:04;;;;;;;9.43;4.10;;;;;;;27.67;39.60;96425.72;5036556;28;20355;-28
2023/06/26 09:14:30;;;;;;;5.85;4.05;;;;;;;27.64;39.51;96431.63;5034938;28;20417;-26
2023/06/26 09:16:55;;;;;;;5.88;4.15;;;;;;;27.65;39.86;96433.13;5041970;28;20425;-26
2023/06/26 09:19:21;;;;;;;5.00;4.13;;;;;;;27.76;40.04;96428.03;5032963;28;20492;-26
2023/06/26 09:21:49;;;;;;;4.53;4.13;;;;;;;27.78;39.17;96414.31;5034512;28;20017;-26
2023/06/26 09:24:16;;;;;;;4.97;4.00;;;;;;;27.68;39.18;96429.25;5041602;28;20548;-27
2023/06/26 09:26:41;;;;;;;5.47;3.90;;;;;;;27.71;39.32;96411.44;5033376;28;20032;-26
2023/06/26 09:29:08;;;;;;;6.00;3.65;;;;;;;27.70;38.79;96412.72;5033554;28;20108;-26
2023/06/26 09:31:38;;;;;;;5.35;4.13;;;;;;;27.69;38.89;96405.69;5033599;28;20026;-26
2023/06/26 09:34:04;;;;;;;5.50;3.50;;;;;;;27.72;39.06;96399.00;5046730;28;20538;-26
2023/06/26 09:36:32;;;;;;;5.57;4.35;;;;;;;27.70;38.96;96398.78;5034090;28;20030;-26
2023/06/26 09:38:59;;;;;;;5.32;4.13;;;;;;;27.82;38.86;96402.81;5033080;28;20049;-26
2023/06/26 09:41:25;;;;;;;6.38;4.22;;;;;;;27.80;38.69;96406.16;5033532;28;20041;-26
2023/06/26 09:43:51;;;;;;;7.95;3.70;;;;;;;27.71;39.16;96414.22;5033452;28;20018;-26
2023/06/26 09:46:18;;;;;;;5.22;4.25;;;;;;;27.80;39.02;96399.84;5033555;28;20022;-26
2023/06/26 09:48:43;;;;;;;5.32;3.90;;;;;;;27.73;38.80;96406.09;5033374;28;20025;-26
2023/06/26 09:51:10;;;;;;;6.43;3.88;;;;;;;27.84;39.16;96395.41;5033694;28;20050;-26
2023/06/26 09:53:38;;;;;;;6.35;4.38;;;;;;;27.76;38.92;96407.78;5033462;28;20053;-26
2023/06/26 09:56:07;;;;;;;4.43;3.70;;;;;;;27.76;38.54;96399.44;5032916;28;20043;-27
2023/06/26 09:58:33;;;;;;;5.32;3.72;;;;;;;27.90;38.59;96409.22;5033530;28;20029;-26
2023/06/26 10:00:58;;;;;;;5.75;3.95;;;;;;;27.93;38.24;96419.31;5032872;28;20017;-26
2023/06/26 10:03:24;;;;;;;4.55;3.83;;;;;;;27.93;38.22;96412.97;5033740;28;20029;-26
2023/06/26 10:05:50;;;;;;;5.25;4.32;;;;;;;27.94;38.36;96418.00;5033584;28;20036;-26
2023/06/26 10:08:17;;;;;;;7.25;4.22;;;;;;;27.89;38.34;96424.47;5041255;28;20095;-26
2023/06/26 10:10:46;;;;;;;6.32;3.80;;;;;;;27.93;38.41;96421.34;5033218;28;20026;-26
2023/06/26 10:13:17;;;;;;;5.47;3.90;;;;;;;27.89;38.11;96427.25;5033130;28;20103;-28
2023/06/26 10:15:45;;;;;;;4.93;3.83;;;;;;;27.91;38.34;96421.13;5032925;28;20029;-27
2023/06/26 10:18:13;;;;;;;5.18;4.10;;;;;;;27.88;38.13;96431.31;5033134;28;20014;-26
2023/06/26 10:20:40;;;;;;;6.30;4.05;;;;;;;27.95;38.29;96439.00;5040261;28;20030;-26
2023/06/26 10:23:06;;;;;;;5.18;4.07;;;;;;;27.92;38.40;96428.94;5032996;28;20562;-26
2023/06/26 10:25:32;;;;;;;4.78;3.58;;;;;;;27.98;38.55;96429.56;5033112;28;20061;-26
2023/06/26 10:28:02;;;;;;;5.28;4.10;;;;;;;28.00;38.12;96429.75;5033024;28;20098;-26
2023/06/26 10:30:34;;;;;;;4.57;3.50;;;;;;;27.93;38.32;96427.66;5033002;28;20379;-26
2023/06/26 10:33:02;;;;;;;6.78;3.95;;;;;;;28.01;38.15;96431.25;5036550;28;20028;-26
2023/06/26 10:35:27;;;;;;;4.97;3.58;;;;;;;27.96;37.85;96434.91;5040367;28;20028;-26
2023/06/26 10:38:01;;;;;;;6.28;4.15;;;;;;;28.06;37.58;96427.59;5040922;28;20025;-27
2023/06/26 10:40:28;;;;;;;4.68;3.78;;;;;;;28.05;37.92;96431.69;5036414;28;20025;-26
2023/06/26 10:43:08;;;;;;;4.68;3.60;;;;;;;28.06;37.51;96435.22;5036521;28;20029;-26
2023/06/26 10:45:36;;;;;;;4.78;3.92;;;;;;;27.98;37.69;96435.13;5037239;28;20021;-27
2023/06/26 10:48:01;;;;;;;5.05;3.70;;;;;;;28.05;37.65;96434.47;5036528;28;20021;-26
2023/06/26 10:50:35;;;;;;;5.32;3.88;;;;;;;28.09;37.79;96429.28;5036935;28;20021;-26
2023/06/26 10:53:13;;;;;;;6.60;4.18;;;;;;;28.12;37.62;96436.56;5036161;28;20101;-26
2023/06/26 10:56:03;;;;;;;4.15;3.17;;;;;;;28.12;37.41;96424.66;5036321;28;20017;-26
2023/06/26 10:58:34;;;;;;;6.22;4.00;;;;;;;28.11;37.57;96418.34;5036010;28;20029;-26
2023/06/26 11:01:13;;;;;;;4.55;3.67;;;;;;;28.14;36.97;96417.25;5042494;28;20017;-26
2023/06/26 11:03:40;;;;;;;4.65;3.63;;;;;;;28.18;36.51;96420.50;5049195;28;20057;-26
2023/06/26 11:06:10;;;;;;;4.15;3.60;;;;;;;28.26;36.76;96417.75;5036186;28;20083;-26
2023/06/26 11:08:55;;;;;;;4.78;3.67;;;;;;;28.20;36.74;96415.09;5059325;28;20032;-26
2023/06/26 11:11:21;;;;;;;4.90;3.78;;;;;;;28.21;36.98;96422.16;5035673;28;20356;-26
2023/06/26 11:13:48;;;;;;;4.03;3.15;;;;;;;28.26;37.28;96431.69;5035835;28;20027;-26
2023/06/26 11:16:14;;;;;;;6.03;3.63;;;;;;;28.15;36.80;96431.94;5036147;28;20040;-26
2023/06/26 11:18:44;;;;;;;6.53;3.88;;;;;;;28.16;36.71;96422.28;5036206;28;20031;-26
2023/06/26 11:21:13;;;;;;;5.70;4.18;;;;;;;28.25;36.85;96419.03;5050532;28;20021;-26
2023/06/26 11:23:39;;;;;;;5.00;3.75;;;;;;;28.21;36.26;96413.06;5035819;28;20037;-26
2023/06/26 11:26:23;;;;;;;5.95;3.65;;;;;;;28.26;36.16;96412.19;5035816;28;20033;-26
2023/06/26 11:28:51;;;;;;;5.30;3.38;;;;;;;28.30;36.31;96414.63;5035948;28;20033;-26
2023/06/26 11:31:28;;;;;;;4.93;3.47;;;;;;;28.30;36.50;96414.63;5042014;28;20029;-26
2023/06/26 11:33:54;;;;;;;5.28;3.70;;;;;;;28.32;36.47;96409.22;5035989;28;20441;-26